Latest Weather Observations for Thevenard

IDS60801

Issued at 8:31 am CST Monday 30 May 2016 (issued every 30 minutes, with the page automatically refreshed every 10 minutes)

About weather observations | Map of weather stations | Latest weather observations for SA | Other Formats
Station Details ID: 018200 Name: THEVENARD WIND Lat: -32.18 Lon: 133.63 Height: 8.54 m
Data from the previous 72 hours. | See also: Recent months for locations in South Australia
Date/Time
CST
Temp
°C
App
Temp
°C
Dew
Point
Rel
Hum
%
Delta-T
°C
Wind Press
QNH
hPa
Press
MSL
hPa
Rain
since 9 am
mm
Dir
 
Spd
km/h
Gust
km/h
Spd
kts
Gust
kts
30/08:30am - - - - - NNW 22 24 12 13 - - -
30/08:00am - - - - - NNW 22 26 12 14 - - -
30/07:30am - - - - - N 20 24 11 13 - - -
30/07:00am - - - - - N 19 22 10 12 - - -
30/06:30am - - - - - NNW 19 22 10 12 - - -
30/06:00am - - - - - NNW 20 24 11 13 - - -
30/05:30am - - - - - WNW 22 30 12 16 - - -
30/05:00am - - - - - NW 20 26 11 14 - - -
30/04:30am - - - - - NW 20 24 11 13 - - -
30/04:00am - - - - - NW 20 24 11 13 - - -
30/03:30am - - - - - WNW 20 24 11 13 - - -
30/03:00am - - - - - WNW 20 22 11 12 - - -
30/02:30am - - - - - WNW 19 20 10 11 - - -
30/02:00am - - - - - WNW 17 19 9 10 - - -
30/01:30am - - - - - WNW 15 17 8 9 - - -
30/01:00am - - - - - WNW 15 17 8 9 - - -
30/12:30am - - - - - W 13 15 7 8 - - -
30/12:00am - - - - - SW 19 24 10 13 - - -
 
Date/Time
CST
Temp
°C
App
Temp
°C
Dew
Point
Rel
Hum
%
Delta-T
°C
Wind Press
QNH
hPa
Press
MSL
hPa
Rain
since 9 am
mm
Dir
 
Spd
km/h
Gust
km/h
Spd
kts
Gust
kts
29/11:30pm - - - - - SW 17 20 9 11 - - -
29/11:00pm - - - - - SW 20 24 11 13 - - -
29/10:30pm - - - - - SW 20 24 11 13 - - -
29/10:00pm - - - - - SW 24 30 13 16 - - -
29/09:30pm - - - - - SW 24 28 13 15 - - -
29/09:00pm - - - - - SW 24 28 13 15 - - -
29/08:30pm - - - - - SW 24 32 13 17 - - -
29/08:00pm - - - - - WNW 7 11 4 6 - - -
29/07:30pm - - - - - NE 4 7 2 4 - - -
29/07:00pm - - - - - ENE 9 15 5 8 - - -
29/06:30pm - - - - - ENE 6 7 3 4 - - -
29/06:00pm - - - - - ENE 9 11 5 6 - - -
29/05:30pm - - - - - NE 13 15 7 8 - - -
29/05:00pm - - - - - ENE 13 15 7 8 - - -
29/04:30pm - - - - - ENE 9 13 5 7 - - -
29/04:00pm - - - - - NE 13 15 7 8 - - -
29/03:30pm - - - - - NNE 11 13 6 7 - - -
29/03:00pm - - - - - NE 11 15 6 8 - - -
29/02:30pm - - - - - NNE 15 17 8 9 - - -
29/02:00pm - - - - - NNE 11 17 6 9 - - -
29/01:30pm - - - - - N 11 17 6 9 - - -
29/01:00pm - - - - - NNE 22 24 12 13 - - -
29/12:30pm - - - - - NNE 22 30 12 16 - - -
29/12:00pm - - - - - NNE 28 33 15 18 - - -
29/11:30am - - - - - NNE 28 33 15 18 - - -
29/11:00am - - - - - NNE 33 39 18 21 - - -
29/10:30am - - - - - NNE 33 41 18 22 - - -
29/10:00am - - - - - NNE 30 35 16 19 - - -
29/09:30am - - - - - NNE 32 41 17 22 - - -
29/09:00am - - - - - NNE 30 37 16 20 - - -
29/08:30am - - - - - NNE 24 30 13 16 - - -
29/08:00am - - - - - NNE 28 32 15 17 - - -
29/07:30am - - - - - NNE 28 33 15 18 - - -
29/07:00am - - - - - NNE 24 33 13 18 - - -
29/06:30am - - - - - NNE 24 32 13 17 - - -
29/06:00am - - - - - NNE 24 30 13 16 - - -
29/05:30am - - - - - NNE 19 22 10 12 - - -
29/05:00am - - - - - NNE 20 24 11 13 - - -
29/04:30am - - - - - NNE 17 19 9 10 - - -
29/04:00am - - - - - NNE 13 19 7 10 - - -
29/03:30am - - - - - NE 19 20 10 11 - - -
29/03:00am - - - - - NE 22 26 12 14 - - -
29/02:30am - - - - - NE 22 26 12 14 - - -
29/02:00am - - - - - NE 22 26 12 14 - - -
29/01:30am - - - - - NE 24 28 13 15 - - -
29/01:00am - - - - - NE 22 28 12 15 - - -
29/12:30am - - - - - NE 19 20 10 11 - - -
29/12:00am - - - - - ENE 19 20 10 11 - - -
 
Date/Time
CST
Temp
°C
App
Temp
°C
Dew
Point
Rel
Hum
%
Delta-T
°C
Wind Press
QNH
hPa
Press
MSL
hPa
Rain
since 9 am
mm
Dir
 
Spd
km/h
Gust
km/h
Spd
kts
Gust
kts
28/11:30pm - - - - - NE 17 19 9 10 - - -
28/11:00pm - - - - - NE 15 17 8 9 - - -
28/10:30pm - - - - - NE 17 19 9 10 - - -
28/10:00pm - - - - - NNE 13 15 7 8 - - -
28/09:30pm - - - - - NNE 11 13 6 7 - - -
28/09:00pm - - - - - ENE 17 20 9 11 - - -
28/08:30pm - - - - - E 17 22 9 12 - - -
28/08:00pm - - - - - E 7 9 4 5 - - -
28/07:30pm - - - - - ESE 9 11 5 6 - - -
28/07:00pm - - - - - SE 6 9 3 5 - - -
28/06:30pm - - - - - S 4 4 2 2 - - -
28/06:00pm - - - - - S 4 6 2 3 - - -
28/05:30pm - - - - - S 4 6 2 3 - - -
28/05:00pm - - - - - SSW 7 9 4 5 - - -
28/04:30pm - - - - - SSW 7 9 4 5 - - -
28/04:00pm - - - - - SSW 9 11 5 6 - - -
28/03:30pm - - - - - SSW 9 13 5 7 - - -
28/03:00pm - - - - - SSW 11 13 6 7 - - -
28/02:30pm - - - - - SW 11 13 6 7 - - -
28/02:00pm - - - - - SW 13 15 7 8 - - -
28/01:30pm - - - - - SW 15 17 8 9 - - -
28/01:00pm - - - - - WSW 13 17 7 9 - - -
28/12:30pm - - - - - WSW 13 17 7 9 - - -
28/12:00pm - - - - - WSW 13 17 7 9 - - -
28/11:30am - - - - - WSW 9 11 5 6 - - -
28/11:00am - - - - - WSW 13 15 7 8 - - -
28/10:30am - - - - - SW 11 13 6 7 - - -
28/10:00am - - - - - SSW 11 13 6 7 - - -
28/09:30am - - - - - S 11 15 6 8 - - -
28/09:00am - - - - - S 17 19 9 10 - - -
28/08:30am - - - - - S 19 20 10 11 - - -
28/08:00am - - - - - SSE 19 24 10 13 - - -
28/07:30am - - - - - S 11 15 6 8 - - -
28/07:00am - - - - - SSW 11 17 6 9 - - -
28/06:30am - - - - - SSW 20 28 11 15 - - -
28/06:00am - - - - - SSW 17 20 9 11 - - -
28/05:30am - - - - - SSW 17 20 9 11 - - -
28/05:00am - - - - - S 20 24 11 13 - - -
28/04:30am - - - - - S 22 26 12 14 - - -
28/04:00am - - - - - S 24 28 13 15 - - -
28/03:30am - - - - - S 24 30 13 16 - - -
28/03:00am - - - - - SSW 26 32 14 17 - - -
28/02:30am - - - - - S 22 28 12 15 - - -
28/02:00am - - - - - SSW 32 39 17 21 - - -
28/01:30am - - - - - S 24 32 13 17 - - -
28/01:25am - - - - - S 30 48 16 26 - - -
28/01:00am - - - - - SSW 30 35 16 19 - - -
28/12:30am - - - - - S 30 35 16 19 - - -
28/12:00am - - - - - SSW 30 39 16 21 - - -
 
Date/Time
CST
Temp
°C
App
Temp
°C
Dew
Point
Rel
Hum
%
Delta-T
°C
Wind Press
QNH
hPa
Press
MSL
hPa
Rain
since 9 am
mm
Dir
 
Spd
km/h
Gust
km/h
Spd
kts
Gust
kts
27/11:30pm - - - - - SSW 32 41 17 22 - - -
27/11:00pm - - - - - SSW 33 44 18 24 - - -
27/10:30pm - - - - - S 39 48 21 26 - - -
27/10:00pm - - - - - S 30 56 16 30 - - -
27/09:59pm - - - - - S 28 46 15 25 - - -
27/09:30pm - - - - - SSW 37 46 20 25 - - -
27/09:00pm - - - - - SSW 39 56 21 30 - - -
27/08:50pm - - - - - SSW 28 54 15 29 - - -
27/08:30pm - - - - - SSW 35 41 19 22 - - -
27/08:00pm - - - - - SSW 37 48 20 26 - - -
27/07:30pm - - - - - SSW 37 46 20 25 - - -
27/07:00pm - - - - - S 37 44 20 24 - - -
27/06:30pm - - - - - SSW 35 46 19 25 - - -
27/06:00pm - - - - - SSW 37 50 20 27 - - -
27/05:32pm - - - - - SSW 39 57 21 31 - - -
27/05:30pm - - - - - SSW 43 59 23 32 - - -
27/05:22pm - - - - - SSW 41 59 22 32 - - -
27/05:00pm - - - - - SSW 44 56 24 30 - - -
27/04:30pm - - - - - SSW 35 44 19 24 - - -
27/04:00pm - - - - - SSW 43 54 23 29 - - -
27/03:30pm - - - - - SSW 50 61 27 33 - - -
27/03:00pm - - - - - SW 48 57 26 31 - - -
27/02:30pm - - - - - SW 48 57 26 31 - - -
27/02:00pm - - - - - SW 48 63 26 34 - - -
27/01:30pm - - - - - SW 50 65 27 35 - - -
27/01:13pm - - - - - SSW 52 72 28 39 - - -
27/01:00pm - - - - - SW 46 61 25 33 - - -
27/12:30pm - - - - - SW 50 59 27 32 - - -
27/12:00pm - - - - - SSW 48 61 26 33 - - -
27/11:30am - - - - - SW 46 67 25 36 - - -
27/11:26am - - - - - SW 44 63 24 34 - - -
27/11:00am - - - - - SW 43 52 23 28 - - -
27/10:33am - - - - - SW 44 67 24 36 - - -
27/10:30am - - - - - SW 41 52 22 28 - - -
27/10:00am - - - - - SW 41 52 22 28 - - -
27/09:44am - - - - - WSW 39 69 21 37 - - -
27/09:30am - - - - - WSW 37 46 20 25 - - -
27/09:00am - - - - - WSW 37 46 20 25 - - -

Other Formats:

Comma delimited format used in spreadsheet applications
http://www.bom.gov.au/fwo/IDS60801/IDS60801.95653.axf

JavaScript Object Notation format (JSON) in row-major order
http://www.bom.gov.au/fwo/IDS60801/IDS60801.95653.json